Time;durP1;ratioP1;P1;durP2;ratioP2;P2;SDS_P1;SDS_P2;PMS_P1;PMS_P2;Temp;Humidity;BMP_temperature;BMP_pressure;BME280_temperature;BME280_humidity;BME280_pressure;Samples;Min_cycle;Max_cycle;Signal;HPM_P1;HPM_P2
2021/04/05 00:00:33;;;;;;;7.07;2.87;;;;;;;8.29;64.73;97936.75;5065615;28;20226;-68
2021/04/05 00:03:00;;;;;;;7.80;3.03;;;;;;;8.29;65.00;97934.94;5061414;28;20199;-67
2021/04/05 00:05:29;;;;;;;8.10;3.00;;;;;;;8.18;65.44;97927.38;5061912;28;20211;-70
2021/04/05 00:07:56;;;;;;;6.37;3.30;;;;;;;8.21;64.92;97928.88;5068300;28;20739;-67
2021/04/05 00:10:25;;;;;;;5.60;3.00;;;;;;;8.34;64.70;97935.19;5061273;28;20232;-68
2021/04/05 00:12:54;;;;;;;9.40;3.37;;;;;;;8.20;65.82;97930.72;5064601;28;20237;-67
2021/04/05 00:15:21;;;;;;;5.17;3.30;;;;;;;8.19;65.45;97923.75;5063219;28;20210;-67
2021/04/05 00:17:49;;;;;;;5.90;3.13;;;;;;;8.31;64.87;97913.44;5066145;28;20219;-68
2021/04/05 00:20:19;;;;;;;9.60;3.10;;;;;;;8.36;64.37;97917.19;5066131;28;20253;-67
2021/04/05 00:22:46;;;;;;;7.27;3.43;;;;;;;8.39;64.39;97922.16;5061632;28;20634;-69
2021/04/05 00:25:13;;;;;;;5.90;3.10;;;;;;;8.35;64.37;97914.72;5063358;28;20212;-67
2021/04/05 00:27:41;;;;;;;10.70;3.07;;;;;;;8.38;64.01;97904.53;5068391;28;20272;-69
2021/04/05 00:30:16;;;;;;;7.47;3.40;;;;;;;8.43;63.83;97904.78;5065834;28;20238;-67
2021/04/05 00:32:43;;;;;;;8.37;3.37;;;;;;;8.53;63.00;97904.47;5067622;28;20204;-67
2021/04/05 00:35:12;;;;;;;7.47;3.37;;;;;;;8.56;62.96;97904.91;5066124;28;20214;-67
2021/04/05 00:37:38;;;;;;;5.17;2.53;;;;;;;8.65;62.71;97903.78;5066979;28;20297;-66
2021/04/05 00:40:07;;;;;;;6.13;2.67;;;;;;;8.74;61.38;97907.97;5070588;28;20607;-67
2021/04/05 00:42:34;;;;;;;9.03;2.90;;;;;;;8.76;61.07;97919.22;5068675;28;20663;-69
2021/04/05 00:45:01;;;;;;;9.10;3.07;;;;;;;8.84;60.52;97923.59;5068361;28;20207;-68
2021/04/05 00:47:29;;;;;;;8.87;2.90;;;;;;;8.70;61.16;97916.50;5067414;28;20203;-67
2021/04/05 00:49:56;;;;;;;6.77;2.70;;;;;;;8.76;60.71;97905.91;5065879;28;20272;-67
2021/04/05 00:52:22;;;;;;;5.83;2.73;;;;;;;8.90;60.01;97897.03;5069161;28;20211;-67
2021/04/05 00:54:49;;;;;;;12.33;3.37;;;;;;;8.89;59.55;97892.69;5073755;28;20690;-67
2021/04/05 00:57:16;;;;;;;8.80;2.53;;;;;;;8.93;59.60;97885.19;5073240;28;20207;-67
2021/04/05 00:59:43;;;;;;;7.67;2.83;;;;;;;8.98;59.18;97886.22;5075286;28;20200;-67
2021/04/05 01:02:10;;;;;;;9.97;3.03;;;;;;;8.85;59.58;97880.00;5070345;28;20214;-67
2021/04/05 01:04:38;;;;;;;9.27;3.13;;;;;;;8.92;59.28;97871.03;5072152;28;20549;-67
2021/04/05 01:07:05;;;;;;;5.67;3.10;;;;;;;8.81;59.97;97860.94;5071801;28;20210;-67
2021/04/05 01:09:32;;;;;;;5.87;2.60;;;;;;;8.82;59.94;97859.06;5068948;28;20232;-67
2021/04/05 01:11:59;;;;;;;9.03;3.40;;;;;;;8.70;60.36;97856.16;5071417;28;20590;-67
2021/04/05 01:14:25;;;;;;;6.97;2.73;;;;;;;8.78;60.29;97853.31;5071283;28;20210;-68
2021/04/05 01:16:52;;;;;;;6.57;2.67;;;;;;;8.80;59.93;97845.16;5072165;28;20207;-67
2021/04/05 01:19:19;;;;;;;6.67;2.87;;;;;;;8.54;61.05;97844.94;5071732;28;20210;-67
2021/04/05 01:21:50;;;;;;;5.13;2.97;;;;;;;8.68;60.78;97838.72;5067156;28;20713;-67
2021/04/05 01:24:16;;;;;;;6.37;2.63;;;;;;;8.41;61.95;97847.47;5070225;28;20289;-67
2021/04/05 01:26:43;;;;;;;4.80;2.50;;;;;;;8.51;61.96;97848.81;5073040;28;20206;-68
2021/04/05 01:29:10;;;;;;;5.93;2.70;;;;;;;8.54;62.00;97843.13;5072779;28;20229;-67
2021/04/05 01:31:38;;;;;;;5.00;2.60;;;;;;;8.38;62.86;97848.69;5071914;28;20225;-67
2021/04/05 01:34:05;;;;;;;5.97;2.73;;;;;;;8.40;63.56;97849.34;5070867;28;20298;-67
2021/04/05 01:36:31;;;;;;;6.97;3.30;;;;;;;8.33;63.52;97831.69;5072955;28;20206;-67
2021/04/05 01:38:59;;;;;;;6.50;2.83;;;;;;;8.41;62.98;97820.91;5073250;28;20569;-69
2021/04/05 01:41:28;;;;;;;9.73;3.13;;;;;;;8.25;63.82;97815.84;5063219;28;20241;-67
2021/04/05 01:43:55;;;;;;;8.97;2.97;;;;;;;8.22;64.16;97809.06;5068619;28;20606;-67
2021/04/05 01:46:23;;;;;;;2.67;2.10;;;;;;;8.32;63.65;97808.78;5065684;28;20215;-67
2021/04/05 01:48:50;;;;;;;7.40;3.07;;;;;;;8.36;63.79;97810.00;5064763;28;20223;-67
2021/04/05 01:51:18;;;;;;;10.83;2.63;;;;;;;8.26;63.74;97813.00;5064820;28;20232;-67
2021/04/05 01:53:46;;;;;;;5.37;2.70;;;;;;;8.37;63.22;97807.16;5070778;28;20233;-67
2021/04/05 01:56:15;;;;;;;6.73;2.83;;;;;;;8.23;63.93;97800.09;5072215;28;20691;-67
2021/04/05 01:58:43;;;;;;;6.60;2.60;;;;;;;8.29;64.10;97785.22;5070726;28;20731;-67
2021/04/05 02:01:13;;;;;;;9.80;3.00;;;;;;;8.12;64.80;97781.16;5064269;28;20309;-67
2021/04/05 02:03:41;;;;;;;7.17;3.00;;;;;;;8.19;64.76;97774.91;5071985;28;20210;-67
2021/04/05 02:06:11;;;;;;;4.83;2.40;;;;;;;8.23;64.56;97775.34;5068806;28;20248;-67
2021/04/05 02:08:39;;;;;;;8.67;2.83;;;;;;;8.18;64.61;97775.88;5062788;28;20728;-68
2021/04/05 02:11:10;;;;;;;8.83;2.90;;;;;;;8.18;64.76;97767.09;5068997;28;20278;-68
2021/04/05 02:13:37;;;;;;;7.23;3.00;;;;;;;8.08;65.25;97748.00;5067446;28;20208;-67
2021/04/05 02:16:05;;;;;;;8.07;2.57;;;;;;;8.06;65.61;97747.34;5069732;28;20218;-67
2021/04/05 02:18:32;;;;;;;11.47;2.93;;;;;;;8.08;65.51;97740.84;5069430;28;20234;-68
2021/04/05 02:20:59;;;;;;;8.73;3.10;;;;;;;8.14;65.09;97741.91;5072648;28;20241;-68
2021/04/05 02:23:27;;;;;;;6.57;2.90;;;;;;;8.09;65.72;97741.66;5071138;28;20207;-67
2021/04/05 02:26:08;;;;;;;9.70;2.97;;;;;;;8.14;65.68;97726.81;5069705;28;20203;-67
2021/04/05 02:28:38;;;;;;;7.17;2.80;;;;;;;8.02;66.47;97724.84;5067569;28;20682;-68
2021/04/05 02:31:05;;;;;;;6.50;3.20;;;;;;;8.13;65.72;97716.38;5071336;28;20669;-67
2021/04/05 02:33:37;;;;;;;8.20;3.07;;;;;;;7.94;67.25;97719.66;5066982;28;20560;-67
2021/04/05 02:36:05;;;;;;;6.23;3.00;;;;;;;7.99;67.00;97723.41;5068418;28;20212;-68
2021/04/05 02:38:33;;;;;;;6.13;2.90;;;;;;;7.92;67.26;97722.50;5068135;28;20230;-67
2021/04/05 02:41:00;;;;;;;10.90;3.17;;;;;;;7.69;69.13;97721.06;5070096;28;20313;-68
2021/04/05 02:43:27;;;;;;;9.63;2.87;;;;;;;7.75;68.66;97709.69;5069091;28;20206;-67
2021/04/05 02:45:55;;;;;;;8.50;2.90;;;;;;;7.63;69.44;97716.53;5068793;28;20210;-67
2021/04/05 02:48:23;;;;;;;11.10;3.10;;;;;;;7.50;70.55;97719.88;5067520;28;20216;-67
2021/04/05 02:50:50;;;;;;;9.53;2.93;;;;;;;7.50;70.80;97717.22;5067662;28;20690;-68
2021/04/05 02:53:18;;;;;;;9.23;2.80;;;;;;;7.43;71.13;97716.34;5070997;28;20236;-68
2021/04/05 02:55:45;;;;;;;7.93;3.10;;;;;;;7.40;71.55;97706.06;5067517;28;20202;-68
2021/04/05 02:58:12;;;;;;;10.03;3.00;;;;;;;7.36;71.95;97707.47;5064164;28;20230;-67
2021/04/05 03:00:39;;;;;;;7.87;2.93;;;;;;;7.27;73.16;97705.13;5066927;28;20232;-67
2021/04/05 03:03:06;;;;;;;8.30;3.13;;;;;;;7.15;74.52;97698.66;5067318;28;20203;-67
2021/04/05 03:05:33;;;;;;;5.40;3.27;;;;;;;7.07;76.46;97688.16;5067009;28;20206;-66
2021/04/05 03:08:00;;;;;;;9.47;2.67;;;;;;;6.87;78.07;97684.44;5067927;28;20224;-67
2021/04/05 03:10:29;;;;;;;5.77;3.30;;;;;;;6.85;78.48;97687.28;5065522;28;20598;-67
2021/04/05 03:12:58;;;;;;;5.10;2.60;;;;;;;6.80;80.31;97678.25;5069305;28;20602;-67
2021/04/05 03:15:26;;;;;;;5.20;2.90;;;;;;;6.73;79.41;97675.50;5065423;28;20240;-67
2021/04/05 03:17:57;;;;;;;7.10;3.30;;;;;;;6.77;79.73;97671.47;5059067;28;20212;-67
2021/04/05 03:20:29;;;;;;;7.57;3.20;;;;;;;6.63;80.50;97667.00;5068141;28;20728;-67
2021/04/05 03:22:56;;;;;;;6.27;2.97;;;;;;;6.63;81.73;97652.91;5069584;28;20204;-67
2021/04/05 03:25:24;;;;;;;7.13;3.00;;;;;;;6.61;81.73;97647.00;5060499;28;20682;-66
2021/04/05 03:27:51;;;;;;;5.90;3.10;;;;;;;6.62;82.27;97644.16;5070726;28;20612;-67
2021/04/05 03:30:22;;;;;;;6.17;2.70;;;;;;;6.52;83.12;97634.84;5063695;28;20276;-67
2021/04/05 03:32:52;;;;;;;8.20;3.13;;;;;;;6.41;84.53;97630.00;5060057;28;20227;-67
2021/04/05 03:35:23;;;;;;;6.80;2.87;;;;;;;6.44;83.81;97627.00;5066598;28;20211;-67
2021/04/05 03:37:51;;;;;;;9.70;2.73;;;;;;;6.45;83.62;97610.09;5066993;28;20206;-67
2021/04/05 03:40:18;;;;;;;5.93;2.70;;;;;;;6.34;84.72;97605.25;5067744;28;20223;-66
2021/04/05 03:42:48;;;;;;;7.30;2.90;;;;;;;6.42;84.23;97610.44;5069986;28;20205;-67
2021/04/05 03:45:20;;;;;;;9.93;2.97;;;;;;;6.46;83.52;97603.78;5064357;28;20213;-65
2021/04/05 03:47:52;;;;;;;8.13;2.73;;;;;;;6.33;85.83;97604.44;5066661;28;20228;-66
2021/04/05 03:50:22;;;;;;;9.50;3.20;;;;;;;6.17;86.68;97604.63;5064587;28;20236;-67
2021/04/05 03:52:53;;;;;;;6.60;3.10;;;;;;;6.21;87.13;97597.97;5069457;28;20595;-67
2021/04/05 03:55:22;;;;;;;5.17;2.93;;;;;;;6.21;86.78;97599.78;5066376;28;20661;-67
2021/04/05 03:57:50;;;;;;;6.97;3.17;;;;;;;6.23;86.29;97606.53;5064199;28;20202;-68
2021/04/05 04:00:20;;;;;;;7.10;3.20;;;;;;;6.16;87.52;97600.34;5069829;28;20239;-67
2021/04/05 04:02:49;;;;;;;6.87;3.00;;;;;;;6.12;88.45;97604.34;5059167;28;20205;-66
2021/04/05 04:05:22;;;;;;;7.43;2.90;;;;;;;6.14;88.08;97593.59;5067300;28;20239;-67
2021/04/05 04:07:52;;;;;;;8.03;3.20;;;;;;;6.23;87.59;97600.41;5062639;28;20208;-67
2021/04/05 04:10:23;;;;;;;6.90;2.80;;;;;;;6.26;86.79;97592.94;5065952;28;20647;-66
2021/04/05 04:12:51;;;;;;;7.27;3.20;;;;;;;6.14;88.19;97586.44;5063766;28;20792;-66
2021/04/05 04:15:18;;;;;;;6.47;3.43;;;;;;;6.06;88.39;97581.25;5068284;28;20213;-67
2021/04/05 04:17:45;;;;;;;7.77;2.90;;;;;;;6.12;87.90;97577.88;5069916;28;20209;-67
2021/04/05 04:20:16;;;;;;;6.20;3.23;;;;;;;6.01;89.66;97565.09;5067873;28;20239;-67
2021/04/05 04:22:44;;;;;;;5.87;3.07;;;;;;;6.08;88.70;97563.34;5066079;28;20205;-66
2021/04/05 04:25:12;;;;;;;6.87;3.00;;;;;;;6.02;88.69;97553.47;5070226;28;20205;-67
2021/04/05 04:27:42;;;;;;;10.47;3.97;;;;;;;6.16;88.86;97549.16;5069632;28;20210;-67
2021/04/05 04:30:09;;;;;;;5.90;3.30;;;;;;;5.86;91.14;97551.03;5072496;28;20233;-66
2021/04/05 04:32:36;;;;;;;8.10;3.47;;;;;;;5.96;91.77;97538.34;5065950;28;20212;-66
2021/04/05 04:35:04;;;;;;;9.47;3.57;;;;;;;5.89;91.99;97542.69;5073527;28;20548;-67
2021/04/05 04:37:31;;;;;;;6.90;3.30;;;;;;;6.00;91.88;97539.59;5074020;28;20208;-66
2021/04/05 04:39:57;;;;;;;8.53;3.73;;;;;;;6.04;92.34;97540.88;5071829;28;20231;-67
2021/04/05 04:42:25;;;;;;;11.07;3.33;;;;;;;6.11;91.70;97539.16;5071265;28;20201;-67
2021/04/05 04:44:52;;;;;;;7.63;3.17;;;;;;;6.08;91.17;97528.91;5063814;28;20669;-67
2021/04/05 04:47:19;;;;;;;11.50;4.10;;;;;;;6.18;91.56;97533.91;5069859;28;20206;-67
2021/04/05 04:49:47;;;;;;;6.83;3.53;;;;;;;6.19;92.13;97514.38;5067754;28;20228;-66
2021/04/05 04:52:14;;;;;;;5.80;3.10;;;;;;;6.19;91.90;97520.47;5070708;28;20217;-67
2021/04/05 04:54:40;;;;;;;8.40;3.60;;;;;;;6.15;92.15;97516.56;5072870;28;20209;-67
2021/04/05 04:57:07;;;;;;;7.93;3.67;;;;;;;6.34;89.94;97518.63;5068237;28;20225;-67
2021/04/05 04:59:34;;;;;;;9.23;3.50;;;;;;;6.37;88.85;97515.63;5064164;28;20209;-66
2021/04/05 05:02:02;;;;;;;7.77;3.40;;;;;;;6.57;87.70;97508.69;5067863;28;20232;-66
2021/04/05 05:04:30;;;;;;;6.77;2.97;;;;;;;6.62;86.88;97513.44;5070563;28;20570;-66
2021/04/05 05:07:00;;;;;;;8.50;3.17;;;;;;;6.59;88.06;97497.88;5073366;28;20206;-68
2021/04/05 05:09:27;;;;;;;6.87;2.80;;;;;;;6.76;84.69;97484.19;5073522;28;20217;-68
2021/04/05 05:11:54;;;;;;;8.50;3.03;;;;;;;7.00;80.84;97483.81;5071684;28;20229;-67
2021/04/05 05:14:21;;;;;;;8.63;2.83;;;;;;;7.19;77.95;97488.47;5067653;28;20220;-67
2021/04/05 05:16:48;;;;;;;8.40;2.77;;;;;;;7.21;78.50;97493.59;5071887;28;20194;-69
2021/04/05 05:19:16;;;;;;;6.83;2.80;;;;;;;7.49;74.99;97484.59;5069406;28;20625;-69
2021/04/05 05:21:46;;;;;;;5.37;2.50;;;;;;;7.70;73.18;97481.03;5066262;28;20229;-69
2021/04/05 05:24:16;;;;;;;5.30;2.80;;;;;;;7.92;71.37;97486.06;5069743;28;20205;-70
2021/04/05 05:26:43;;;;;;;5.47;2.73;;;;;;;7.92;71.41;97483.41;5066737;28;20734;-66
2021/04/05 05:29:12;;;;;;;5.93;2.87;;;;;;;7.96;71.48;97479.34;5072799;28;20235;-68
2021/04/05 05:31:41;;;;;;;7.67;2.60;;;;;;;7.93;72.53;97466.47;5063563;28;20268;-68
2021/04/05 05:34:08;;;;;;;5.83;2.83;;;;;;;8.06;70.14;97465.69;5071192;28;20198;-68
2021/04/05 05:36:36;;;;;;;7.67;2.80;;;;;;;8.20;69.82;97476.22;5072398;28;20204;-68
2021/04/05 05:39:04;;;;;;;10.83;3.17;;;;;;;8.36;69.69;97467.88;5070635;28;20212;-68
2021/04/05 05:41:44;;;;;;;9.53;3.27;;;;;;;8.17;69.86;97455.31;5071748;28;20641;-69
2021/04/05 05:44:15;;;;;;;5.23;2.37;;;;;;;7.66;76.75;97440.78;5066024;28;20213;-67
2021/04/05 05:46:45;;;;;;;7.47;3.10;;;;;;;8.29;71.18;97455.59;5067646;28;20217;-68
2021/04/05 05:49:29;;;;;;;5.43;2.93;;;;;;;8.46;69.79;97452.38;5068855;28;20602;-71
2021/04/05 05:52:09;;;;;;;8.23;2.63;;;;;;;8.49;71.68;97444.00;5071925;28;20694;-70
2021/04/05 05:54:50;;;;;;;6.97;2.77;;;;;;;8.67;69.80;97441.56;5071593;28;20197;-69
2021/04/05 05:57:22;;;;;;;9.00;3.13;;;;;;;8.35;69.62;97446.81;5072308;28;20204;-72
2021/04/05 05:59:54;;;;;;;8.80;3.13;;;;;;;8.78;68.16;97440.97;5067753;28;20199;-71
2021/04/05 06:02:30;;;;;;;8.53;3.40;;;;;;;8.82;67.81;97433.38;5071332;28;20758;-74
2021/04/05 06:05:18;;;;;;;10.13;2.67;;;;;;;8.79;66.30;97429.28;5069863;28;20208;-73
2021/04/05 06:07:54;;;;;;;9.07;2.60;;;;;;;8.77;65.86;97431.34;5068605;28;20204;-73
2021/04/05 06:10:24;;;;;;;8.47;3.43;;;;;;;8.87;67.04;97418.47;5068098;28;20231;-73
2021/04/05 06:13:01;;;;;;;6.60;2.80;;;;;;;9.06;64.90;97432.78;5072229;28;20211;-74
2021/04/05 06:15:29;;;;;;;6.40;3.10;;;;;;;9.32;62.68;97441.56;5064818;28;20200;-75
2021/04/05 06:18:04;;;;;;;6.77;2.70;;;;;;;9.78;59.58;97442.31;5067435;28;20204;-73
2021/04/05 06:20:37;;;;;;;5.77;2.97;;;;;;;9.71;58.72;97446.00;5068633;28;20377;-75
2021/04/05 06:23:24;;;;;;;4.87;2.40;;;;;;;9.96;57.14;97436.28;5064511;28;20709;-75
2021/04/05 06:26:13;;;;;;;6.93;2.30;;;;;;;10.10;55.37;97433.38;5075140;28;20200;-74
2021/04/05 06:28:55;;;;;;;6.60;2.60;;;;;;;10.31;54.48;97417.06;5060380;28;20288;-73
2021/04/05 06:31:40;;;;;;;5.23;2.60;;;;;;;10.41;53.37;97417.44;5057519;28;20225;-71
2021/04/05 06:34:20;;;;;;;7.60;2.90;;;;;;;10.66;52.92;97410.31;5067813;28;20250;-73
2021/04/05 06:36:53;;;;;;;7.63;2.87;;;;;;;10.43;52.71;97415.38;5068399;28;20201;-72
2021/04/05 06:39:25;;;;;;;6.33;2.60;;;;;;;10.74;51.75;97419.91;5068179;28;20190;-73
2021/04/05 06:42:17;;;;;;;5.80;2.33;;;;;;;10.58;52.17;97415.91;5062503;28;20260;-73
2021/04/05 06:45:07;;;;;;;6.23;2.77;;;;;;;10.81;50.32;97421.50;5065894;28;20201;-72
2021/04/05 06:48:09;;;;;;;6.60;2.60;;;;;;;11.10;50.36;97406.66;5064719;28;20216;-73
2021/04/05 06:50:42;;;;;;;5.30;2.77;;;;;;;10.96;49.68;97395.28;5069072;28;20228;-70
2021/04/05 06:53:24;;;;;;;9.10;2.97;;;;;;;11.31;49.24;97398.28;5068909;28;20661;-73
2021/04/05 06:55:56;;;;;;;5.70;2.63;;;;;;;11.28;49.78;97396.03;5063733;28;20570;-73
2021/04/05 06:58:56;;;;;;;8.00;2.93;;;;;;;11.53;48.18;97405.66;5070736;28;20205;-72
2021/04/05 07:01:36;;;;;;;6.80;2.70;;;;;;;11.51;47.74;97407.72;5068722;28;20225;-73
2021/04/05 07:04:33;;;;;;;6.07;3.07;;;;;;;11.55;48.91;97406.25;5068771;28;20202;-73
2021/04/05 07:07:08;;;;;;;8.93;2.70;;;;;;;11.78;47.26;97405.63;5064635;28;20206;-75
2021/04/05 07:09:42;;;;;;;4.63;2.93;;;;;;;11.40;47.62;97402.28;5072652;28;20221;-73
2021/04/05 07:12:39;;;;;;;3.87;2.63;;;;;;;11.74;47.68;97401.75;5068596;28;20226;-74
2021/04/05 07:15:16;;;;;;;5.47;2.80;;;;;;;11.98;47.07;97398.19;5046946;28;20208;-77
2021/04/05 07:17:50;;;;;;;5.53;2.80;;;;;;;12.12;46.36;97398.84;5066770;28;20237;-73
2021/04/05 07:20:21;;;;;;;4.97;2.67;;;;;;;12.02;46.77;97396.72;5069743;28;20290;-72
2021/04/05 07:22:59;;;;;;;7.20;3.08;;;;;;;11.75;47.20;97397.25;5064754;28;20459;-72
2021/04/05 07:25:30;;;;;;;5.83;2.80;;;;;;;12.08;45.87;97411.84;5071227;28;20210;-71
2021/04/05 07:28:09;;;;;;;8.23;2.90;;;;;;;12.18;46.44;97407.59;5059690;28;20224;-74
2021/04/05 07:30:41;;;;;;;7.67;2.73;;;;;;;12.08;46.85;97398.47;5068284;28;20228;-74
2021/04/05 07:33:19;;;;;;;6.57;2.70;;;;;;;12.27;45.98;97401.94;5065312;28;20202;-71
2021/04/05 07:35:54;;;;;;;7.20;2.87;;;;;;;12.63;45.58;97393.81;5068777;28;20437;-70
2021/04/05 07:38:25;;;;;;;6.60;2.80;;;;;;;12.06;45.85;97391.72;5070630;28;20443;-71
2021/04/05 07:40:55;;;;;;;5.87;2.73;;;;;;;12.53;44.94;97397.84;5070763;28;20378;-70
2021/04/05 07:43:32;;;;;;;5.37;2.63;;;;;;;13.07;43.54;97396.84;5069777;28;20249;-70
2021/04/05 07:46:14;;;;;;;5.83;3.27;;;;;;;13.13;43.72;97387.91;5070609;28;20208;-77
2021/04/05 07:48:48;;;;;;;6.23;2.87;;;;;;;13.02;44.56;97385.19;5060607;28;20200;-71
2021/04/05 07:51:19;;;;;;;4.97;2.43;;;;;;;13.64;42.70;97392.53;5063718;28;20242;-70
2021/04/05 07:53:50;;;;;;;5.10;2.47;;;;;;;13.38;43.33;97387.66;5070292;28;20686;-70
2021/04/05 07:56:22;;;;;;;5.83;2.90;;;;;;;13.80;42.21;97394.50;5066834;28;20226;-70
2021/04/05 07:59:02;;;;;;;7.13;2.93;;;;;;;13.86;41.57;97380.97;5061795;28;20201;-71
2021/04/05 08:01:37;;;;;;;9.37;3.00;;;;;;;13.61;42.36;97380.41;5064446;28;20239;-72
2021/04/05 08:04:08;;;;;;;6.67;2.57;;;;;;;13.84;41.59;97377.72;5064451;28;20205;-77
2021/04/05 08:06:39;;;;;;;6.10;2.47;;;;;;;14.69;40.40;97373.22;5072005;28;20212;-73
2021/04/05 08:09:09;;;;;;;8.60;2.80;;;;;;;14.35;40.59;97360.78;5065221;28;20345;-73
2021/04/05 08:12:16;;;;;;;6.80;2.73;;;;;;;15.11;39.43;97363.72;5107345;27;20849;-76
2021/04/05 08:14:52;;;;;;;7.57;2.33;;;;;;;14.77;40.67;97362.88;5083314;28;20212;-74
2021/04/05 08:17:25;;;;;;;8.00;2.80;;;;;;;14.64;40.33;97354.34;5076527;28;20205;-73
2021/04/05 08:19:58;;;;;;;6.90;3.20;;;;;;;15.36;39.01;97356.91;5081272;28;20576;-73
2021/04/05 08:22:34;;;;;;;9.10;3.00;;;;;;;14.88;39.72;97342.38;5086645;28;20198;-73
2021/04/05 08:25:09;;;;;;;5.40;2.90;;;;;;;15.73;38.49;97352.56;5087129;28;20190;-72
2021/04/05 08:27:44;;;;;;;6.63;2.73;;;;;;;16.01;37.81;97355.06;5086207;28;20675;-71
2021/04/05 08:30:21;;;;;;;5.53;2.40;;;;;;;15.03;38.92;97358.72;5087911;28;20219;-71
2021/04/05 08:32:56;;;;;;;10.93;3.00;;;;;;;15.10;39.46;97340.59;5067979;28;20239;-70
2021/04/05 08:35:35;;;;;;;4.73;2.60;;;;;;;14.91;38.93;97345.41;5076922;28;20250;-69
2021/04/05 08:38:10;;;;;;;7.50;2.37;;;;;;;15.32;38.56;97344.16;5084530;28;20249;-71
2021/04/05 08:40:41;;;;;;;8.20;2.93;;;;;;;15.03;38.56;97342.63;5084289;28;20216;-69
2021/04/05 08:43:18;;;;;;;8.90;2.47;;;;;;;15.83;36.82;97341.13;5077090;28;20204;-67
2021/04/05 08:45:48;;;;;;;3.20;2.00;;;;;;;15.75;37.89;97331.59;5084749;28;20201;-72
2021/04/05 08:48:18;;;;;;;7.10;2.30;;;;;;;15.59;35.93;97351.28;5078939;28;20205;-70
2021/04/05 08:50:50;;;;;;;10.27;2.50;;;;;;;16.10;33.86;97361.66;5074836;28;20232;-69
2021/04/05 08:53:19;;;;;;;7.63;2.13;;;;;;;15.47;32.99;97358.66;5078468;28;20201;-70
2021/04/05 08:55:47;;;;;;;3.53;1.73;;;;;;;15.26;32.61;97370.16;5086325;28;20205;-69
2021/04/05 08:58:19;;;;;;;5.43;1.93;;;;;;;15.21;32.90;97364.69;5076712;28;20216;-70
2021/04/05 09:00:48;;;;;;;7.00;1.83;;;;;;;15.35;32.88;97371.38;5085673;28;20230;-70
2021/04/05 09:03:19;;;;;;;8.63;2.57;;;;;;;15.43;33.25;97365.59;5083590;28;20203;-68
2021/04/05 09:05:46;;;;;;;8.07;2.23;;;;;;;15.39;33.25;97358.25;5085233;28;20203;-68
2021/04/05 09:08:14;;;;;;;8.40;2.50;;;;;;;15.22;33.51;97360.13;5086460;28;20211;-68
2021/04/05 09:10:48;;;;;;;4.20;1.90;;;;;;;14.95;32.97;97373.38;5085116;28;20235;-68
2021/04/05 09:13:19;;;;;;;7.27;2.30;;;;;;;14.91;33.55;97356.16;5077692;28;20611;-68
2021/04/05 09:16:33;;;;;;;5.90;2.07;;;;;;;14.94;34.20;97341.41;5084944;28;20212;-69
2021/04/05 09:19:30;;;;;;;5.40;2.23;;;;;;;14.95;34.03;97343.03;5042187;28;20251;-68
2021/04/05 09:22:21;;;;;;;7.13;2.20;;;;;;;15.22;34.14;97336.75;5073997;22;20228;-73
2021/04/05 09:25:10;;;;;;;4.17;1.70;;;;;;;15.61;33.94;97332.22;5016291;28;20203;-73
2021/04/05 09:27:58;;;;;;;9.70;2.70;;;;;;;14.96;35.36;97315.94;5013397;28;20214;-74
2021/04/05 09:30:44;;;;;;;3.70;1.83;;;;;;;15.62;34.13;97312.34;4982248;28;20224;-73
2021/04/05 09:33:43;;;;;;;5.83;2.30;;;;;;;15.60;34.29;97317.16;5016543;28;20231;-74
2021/04/05 09:36:16;;;;;;;6.53;2.03;;;;;;;16.10;33.36;97320.44;5005744;28;20669;-75
2021/04/05 09:38:55;;;;;;;5.90;2.20;;;;;;;16.19;32.83;97314.38;5016404;28;20206;-73
2021/04/05 09:41:36;;;;;;;6.93;2.30;;;;;;;15.72;32.88;97317.84;5015449;28;20213;-73
2021/04/05 09:44:37;;;;;;;4.40;1.97;;;;;;;15.74;32.87;97315.69;5016238;28;20206;-73
2021/04/05 09:47:23;;;;;;;5.60;1.87;;;;;;;15.44;33.17;97304.53;5008877;28;20195;-74
2021/04/05 09:49:59;;;;;;;4.40;1.90;;;;;;;15.18;33.73;97303.34;5006386;28;20207;-73
2021/04/05 09:52:41;;;;;;;6.80;2.27;;;;;;;16.10;31.91;97296.22;5013204;28;20227;-73
2021/04/05 09:55:11;;;;;;;7.00;2.00;;;;;;;15.88;31.39;97320.47;5014448;28;20268;-73
2021/04/05 09:57:42;;;;;;;6.93;2.03;;;;;;;15.43;31.65;97308.31;5014057;28;20604;-73
2021/04/05 10:00:11;;;;;;;8.33;1.70;;;;;;;15.53;31.72;97295.00;5009372;28;20561;-73
2021/04/05 10:02:52;;;;;;;5.20;2.07;;;;;;;15.77;31.30;97299.91;5014583;28;20226;-73
2021/04/05 10:05:21;;;;;;;4.37;1.77;;;;;;;15.75;31.42;97290.44;5013851;28;20612;-73
2021/04/05 10:07:49;;;;;;;5.77;1.90;;;;;;;15.55;31.07;97292.88;5017954;28;20213;-79
2021/04/05 10:10:17;;;;;;;4.83;1.80;;;;;;;15.26;30.43;97305.63;5020106;28;20235;-76
2021/04/05 10:12:46;;;;;;;5.03;2.10;;;;;;;15.77;29.81;97301.75;5013946;28;20223;-74
2021/04/05 10:15:17;;;;;;;5.00;2.13;;;;;;;15.88;30.06;97293.56;5022262;28;20687;-76
2021/04/05 10:17:49;;;;;;;7.60;2.10;;;;;;;16.00;29.69;97291.53;5015437;28;20227;-73
2021/04/05 10:20:16;;;;;;;4.73;1.97;;;;;;;15.97;29.34;97300.16;5014153;28;20302;-74
2021/04/05 10:22:45;;;;;;;6.43;2.20;;;;;;;15.85;30.29;97294.06;5013897;28;20231;-77
2021/04/05 10:25:14;;;;;;;5.93;2.00;;;;;;;15.70;29.96;97285.81;5013976;28;20581;-76
2021/04/05 10:27:41;;;;;;;7.97;1.77;;;;;;;15.95;29.55;97283.41;5013491;28;20346;-75
2021/04/05 10:30:15;;;;;;;8.33;1.90;;;;;;;15.59;29.39;97285.91;5014278;28;20310;-73
2021/04/05 10:32:43;;;;;;;6.57;1.87;;;;;;;16.08;29.24;97274.97;5013851;28;20235;-79
2021/04/05 10:35:12;;;;;;;7.93;2.43;;;;;;;15.76;29.63;97273.25;5008737;28;20205;-77
2021/04/05 10:37:44;;;;;;;4.93;1.90;;;;;;;16.10;29.84;97263.91;5013692;28;20197;-77
2021/04/05 10:40:12;;;;;;;5.10;2.10;;;;;;;16.41;28.40;97271.28;5006045;28;20241;-77
2021/04/05 10:42:44;;;;;;;4.53;2.07;;;;;;;16.34;28.57;97278.72;5007894;28;20216;-77
2021/04/05 10:45:19;;;;;;;4.03;1.93;;;;;;;15.82;28.57;97267.69;5007729;28;20217;-73
2021/04/05 10:47:55;;;;;;;7.70;2.23;;;;;;;15.79;28.47;97270.84;5009437;28;20211;-74
2021/04/05 10:50:26;;;;;;;7.43;2.47;;;;;;;16.30;27.84;97277.59;5009029;28;20656;-77
2021/04/05 10:52:54;;;;;;;4.43;2.13;;;;;;;15.35;28.19;97271.09;5013233;28;20231;-75
2021/04/05 10:55:24;;;;;;;9.23;2.67;;;;;;;15.68;28.16;97265.59;5004499;28;20203;-79
2021/04/05 10:57:54;;;;;;;44.53;14.53;;;;;;;16.05;27.80;97258.50;5005024;28;20204;-77
2021/04/05 11:00:24;;;;;;;10.53;2.63;;;;;;;15.28;28.32;97255.13;5002086;28;20207;-78
2021/04/05 11:03:01;;;;;;;11.80;4.83;;;;;;;15.46;28.44;97254.03;5006796;28;20285;-79
2021/04/05 11:05:32;;;;;;;10.57;2.53;;;;;;;15.90;28.40;97244.88;5011265;28;20194;-77
2021/04/05 11:08:01;;;;;;;4.87;2.30;;;;;;;16.32;27.25;97249.34;5013470;28;20210;-79
2021/04/05 11:10:30;;;;;;;3.80;2.13;;;;;;;16.73;26.94;97248.66;5012852;28;20242;-78
2021/04/05 11:12:58;;;;;;;9.93;3.03;;;;;;;16.71;27.32;97240.00;5013349;28;20740;-78
2021/04/05 11:15:27;;;;;;;5.80;2.03;;;;;;;16.90;26.63;97246.63;5010727;28;20202;-78
2021/04/05 11:17:57;;;;;;;4.43;2.43;;;;;;;16.74;26.96;97252.16;5010882;28;20295;-77
2021/04/05 11:20:29;;;;;;;9.90;3.37;;;;;;;17.00;27.11;97229.69;5003431;28;20226;-79
2021/04/05 11:22:58;;;;;;;6.23;2.60;;;;;;;16.71;27.64;97231.13;5013840;28;20230;-78
2021/04/05 11:25:30;;;;;;;8.33;2.20;;;;;;;16.37;28.71;97225.16;5011867;28;20203;-80
2021/04/05 11:28:07;;;;;;;7.00;3.27;;;;;;;15.77;31.29;97219.19;5012560;28;20254;-79
2021/04/05 11:30:35;;;;;;;48.60;4.97;;;;;;;15.68;31.76;97209.13;5002501;28;20215;-79
2021/04/05 11:33:03;;;;;;;9.40;2.77;;;;;;;15.41;32.04;97219.81;5010939;28;20227;-77
2021/04/05 11:35:32;;;;;;;6.13;2.77;;;;;;;15.67;31.93;97194.03;5011309;28;20208;-78
2021/04/05 11:38:01;;;;;;;5.97;2.50;;;;;;;15.92;32.13;97197.00;5010833;28;20557;-76
2021/04/05 11:40:30;;;;;;;6.53;2.60;;;;;;;15.49;32.95;97199.75;5012106;28;20203;-80
2021/04/05 11:42:58;;;;;;;9.80;3.13;;;;;;;16.12;32.58;97216.03;5009644;28;21303;-77
2021/04/05 11:45:33;;;;;;;8.83;3.23;;;;;;;16.55;32.69;97197.03;5007038;28;20316;-76
2021/04/05 11:48:05;;;;;;;14.50;4.00;;;;;;;16.60;33.25;97202.47;5010781;28;20260;-73
2021/04/05 11:50:33;;;;;;;9.17;3.70;;;;;;;16.08;33.80;97188.00;5007490;28;20232;-73
2021/04/05 11:53:05;;;;;;;10.33;3.93;;;;;;;15.35;35.35;97182.38;5006854;28;20321;-75
2021/04/05 11:55:34;;;;;;;9.40;4.30;;;;;;;15.09;35.96;97183.09;5010680;28;20204;-75
2021/04/05 11:58:04;;;;;;;9.67;3.97;;;;;;;15.42;35.53;97188.38;5009193;28;20676;-75